Portland, OR (97222)

7:00 AM PST on February 28, 2015 (GMT -0800)
Linwood Neighborhood, Milwaukie, Or | Change Station
CLOSE
Current Station
Personal Weather Station
Location: Milwaukie, OR
Elevation: 131 ft
Nearby Weather Stations

Elev 131 ft 45.43 °N, 122.60 °W | Updated 9 seconds ago

Partly Cloudy
Partly Cloudy
44.1 °F
Feels Like 42 °F
N
4.5
Wind Variable Wind from NE
Gusts 14.3 mph

Today
High -- | Low -- °F
--% Chance of Precip.
Yesterday
High -- | Low -- °F
Precip. -- in
6:50 AM 5:55 PM
Waxing Gibbous, 78% visible
Pressure 30.03 in
Visibility 10.0 miles
Clouds Few 10000 ft
Windchill 42 °F
Dew Point 28 °F
Humidity 55%
Rainfall 0.00 in
Snow Depth Not available.
UV 0 out of 12
Pollen 4.30 out of 12
Air Quality Not available.
Flu Activity Not available.
METAR KPDX 281453Z 29004KT 10SM FEW100 04/03 A3003 RMK AO2 SLP168 T00390033 51026

More Conditions Fewer Conditions

Pressure 30.03 in
Visibility 10.0 miles
Clouds Few 10000 ft
Windchill 42 °F
Dew Point 28 °F
Humidity 55%
Rainfall 0.00 in
Snow Depth Not available.
UV 0 out of 12
Pollen 4.30 out of 12
Air Quality Not available.
Flu Activity Not available.
METAR KPDX 281453Z 29004KT 10SM FEW100 04/03 A3003 RMK AO2 SLP168 T00390033 51026

More Conditions Fewer Conditions

10-Day Weather Forecast

Almanac

Astronomy

Feb. 28, 2015 Rise Set
Actual Time
Civil Twilight
Nautical Twilight
Astronomical Twilight
Moon
Length of Visible Light
Length of Day
Tomorrow will be .
, % of the Moon is Illuminated

Today's Extremes

State Highs State Lows

Community

WunderPhotos

Upload Photos

1,801,030 photos uploaded!

WunderBlogs® & News

Nearby

Air Quality

  Air Quality AQ Index Pollutant
Not available.

Snow Depth

Station Depth Elevation

Earthquake Activity

City Distance Mag. Time & Date
Minimum magnitude displayed is 2.5.

Coastal Water Temperatures

Place Temperature

Nearby Weather Stations